地図

経路データ

SID SEASON NUMBER BASIN SUBBASIN NAME ISO_TIME NATURE LAT LON WMO_WIND WMO_PRES WMO_AGENCY TRACK_TYPE DIST2LAND LANDFALL IFLAG USA_AGENCY USA_ATCF_ID USA_LAT USA_LON USA_RECORD USA_STATUS USA_WIND USA_PRES USA_SSHS USA_R34_NE USA_R34_SE USA_R34_SW USA_R34_NW USA_R50_NE USA_R50_SE USA_R50_SW USA_R50_NW USA_R64_NE USA_R64_SE USA_R64_SW USA_R64_NW USA_POCI USA_ROCI USA_RMW USA_EYE TOKYO_LAT TOKYO_LON TOKYO_GRADE TOKYO_WIND TOKYO_PRES TOKYO_R50_DIR TOKYO_R50_LONG TOKYO_R50_SHORT TOKYO_R30_DIR TOKYO_R30_LONG TOKYO_R30_SHORT TOKYO_LAND CMA_LAT CMA_LON CMA_CAT CMA_WIND CMA_PRES HKO_LAT HKO_LON HKO_CAT HKO_WIND HKO_PRES NEWDELHI_LAT NEWDELHI_LON NEWDELHI_GRADE NEWDELHI_WIND NEWDELHI_PRES NEWDELHI_CI NEWDELHI_DP NEWDELHI_POCI REUNION_LAT REUNION_LON REUNION_TYPE REUNION_WIND REUNION_PRES REUNION_TNUM REUNION_CI REUNION_RMW REUNION_R34_NE REUNION_R34_SE REUNION_R34_SW REUNION_R34_NW REUNION_R50_NE REUNION_R50_SE REUNION_R50_SW REUNION_R50_NW REUNION_R64_NE REUNION_R64_SE REUNION_R64_SW REUNION_R64_NW BOM_LAT BOM_LON BOM_TYPE BOM_WIND BOM_PRES BOM_TNUM BOM_CI BOM_RMW BOM_R34_NE BOM_R34_SE BOM_R34_SW BOM_R34_NW BOM_R50_NE BOM_R50_SE BOM_R50_SW BOM_R50_NW BOM_R64_NE BOM_R64_SE BOM_R64_SW BOM_R64_NW BOM_ROCI BOM_POCI BOM_EYE BOM_POS_METHOD BOM_PRES_METHOD NADI_LAT NADI_LON NADI_CAT NADI_WIND NADI_PRES WELLINGTON_LAT WELLINGTON_LON WELLINGTON_WIND WELLINGTON_PRES DS824_LAT DS824_LON DS824_STAGE DS824_WIND DS824_PRES TD9636_LAT TD9636_LON TD9636_STAGE TD9636_WIND TD9636_PRES TD9635_LAT TD9635_LON TD9635_WIND TD9635_PRES TD9635_ROCI NEUMANN_LAT NEUMANN_LON NEUMANN_CLASS NEUMANN_WIND NEUMANN_PRES MLC_LAT MLC_LON MLC_CLASS MLC_WIND MLC_PRES USA_GUST BOM_GUST BOM_GUST_PER REUNION_GUST REUNION_GUST_PER USA_SEAHGT USA_SEARAD_NE USA_SEARAD_SE USA_SEARAD_SW USA_SEARAD_NW STORM_SPEED STORM_DIR
1945241N14278 1945 52 NA CS NOT_NAMED 1945-08-29 06:00:00 TS 13.6000 -82.3000 35 hurdat_atl main 124 118 O_____________ hurdat_atl AL061945 13.6000 -82.3000 TS 35 0 8 40
1945241N14278 1945 52 NA CS NOT_NAMED 1945-08-29 09:00:00 TS 13.9026 -82.0327 main 137 133 P_____________ AL061945 13.9026 -82.0327 TS 35 0 8 39
1945241N14278 1945 52 NA CS NOT_NAMED 1945-08-29 12:00:00 TS 14.2000 -81.8000 35 hurdat_atl main 151 150 O_____________ hurdat_atl AL061945 14.2000 -81.8000 TS 35 0 7 34
1945241N14278 1945 52 NA CS NOT_NAMED 1945-08-29 15:00:00 TS 14.4925 -81.6274 main 170 164 P_____________ AL061945 14.4925 -81.6274 TS 37 0 7 26
1945241N14278 1945 52 NA CS NOT_NAMED 1945-08-29 18:00:00 TS 14.8000 -81.5000 40 hurdat_atl main 173 172 O_____________ hurdat_atl AL061945 14.8000 -81.5000 TS 40 0 7 22
1945241N14278 1945 52 NA CS NOT_NAMED 1945-08-29 21:00:00 TS 15.1275 -81.3626 main 182 182 P_____________ AL061945 15.1275 -81.3626 TS 40 0 7 15
1945241N14278 1945 52 NA CS NOT_NAMED 1945-08-30 00:00:00 TS 15.5000 -81.3000 40 hurdat_atl main 201 201 O_____________ hurdat_atl AL061945 15.5000 -81.3000 TS 40 0 8 2
1945241N14278 1945 52 NA CS NOT_NAMED 1945-08-30 03:00:00 TS 15.9424 -81.3326 main 217 213 P_____________ AL061945 15.9424 -81.3326 TS 42 0 9 348
1945241N14278 1945 52 NA CS NOT_NAMED 1945-08-30 06:00:00 TS 16.4000 -81.5000 45 hurdat_atl main 232 232 O_____________ hurdat_atl AL061945 16.4000 -81.5000 TS 45 0 10 334
1945241N14278 1945 52 NA CS NOT_NAMED 1945-08-30 09:00:00 TS 16.8374 -81.7899 main 239 239 P_____________ AL061945 16.8374 -81.7899 TS 47 0 10 320
1945241N14278 1945 52 NA CS NOT_NAMED 1945-08-30 12:00:00 TS 17.2000 -82.2000 50 hurdat_atl main 248 247 O_____________ hurdat_atl AL061945 17.2000 -82.2000 TS 50 0 10 306
1945241N14278 1945 52 NA CS NOT_NAMED 1945-08-30 15:00:00 TS 17.4524 -82.6626 main 253 233 P_____________ AL061945 17.4524 -82.6626 TS 50 0 10 293
1945241N14278 1945 52 NA CS NOT_NAMED 1945-08-30 18:00:00 TS 17.6000 -83.2000 50 hurdat_atl main 233 218 O_____________ hurdat_atl AL061945 17.6000 -83.2000 TS 50 0 11 282
1945241N14278 1945 52 NA CS NOT_NAMED 1945-08-30 21:00:00 TS 17.6724 -83.7852 main 219 203 P_____________ AL061945 17.6724 -83.7852 TS 52 0 11 275
1945241N14278 1945 52 NA CS NOT_NAMED 1945-08-31 00:00:00 TS 17.7000 -84.4000 55 hurdat_atl main 203 201 O_____________ hurdat_atl AL061945 17.7000 -84.4000 TS 55 0 12 275
1945241N14278 1945 52 NA CS NOT_NAMED 1945-08-31 03:00:00 TS 17.7647 -84.9924 main 212 212 P_____________ AL061945 17.7647 -84.9924 TS 55 0 11 275
1945241N14278 1945 52 NA CS NOT_NAMED 1945-08-31 06:00:00 TS 17.8000 -85.6000 55 hurdat_atl main 212 175 O_____________ hurdat_atl AL061945 17.8000 -85.6000 TS 55 0 12 271
1945241N14278 1945 52 NA CS NOT_NAMED 1945-08-31 09:00:00 TS 17.7799 -86.2425 main 175 110 P_____________ AL061945 17.7799 -86.2425 TS 57 0 12 265
1945241N14278 1945 52 NA CS NOT_NAMED 1945-08-31 12:00:00 TS 17.7000 -86.9000 60 hurdat_atl main 110 74 O_____________ hurdat_atl AL061945 17.7000 -86.9000 TS 60 0 13 260
1945241N14278 1945 52 NA CS NOT_NAMED 1945-08-31 15:00:00 TS 17.5574 -87.5576 main 64 10 P_____________ AL061945 17.5574 -87.5576 TS 60 0 13 256
1945241N14278 1945 52 NA CS NOT_NAMED 1945-08-31 18:00:00 TS 17.4000 -88.2000 60 990 hurdat_atl main 10 0 O_____________ hurdat_atl AL061945 17.4000 -88.2000 TS 60 990 0 12 257
1945241N14278 1945 52 NA NA NOT_NAMED 1945-08-31 21:00:00 TS 17.2849 -88.8224 main 0 0 P_____________ AL061945 17.2849 -88.8224 TS 50 0 12 260
1945241N14278 1945 52 NA NA NOT_NAMED 1945-09-01 00:00:00 TS 17.2000 -89.4000 40 hurdat_atl main 0 0 O_____________ hurdat_atl AL061945 17.2000 -89.4000 TS 40 0 11 262
1945241N14278 1945 52 NA NA NOT_NAMED 1945-09-01 03:00:00 TS 17.1423 -89.9224 main 0 0 P_____________ AL061945 17.1423 -89.9224 TS 35 0 10 264
1945241N14278 1945 52 NA NA NOT_NAMED 1945-09-01 06:00:00 TS 17.1000 -90.4000 30 hurdat_atl main 0 0 O_____________ hurdat_atl AL061945 17.1000 -90.4000 TD 30 -1 9 264
1945241N14278 1945 52 NA NA NOT_NAMED 1945-09-01 09:00:00 TS 17.0424 -90.8725 main 0 0 P_____________ AL061945 17.0424 -90.8725 TD 27 -1 9 263
1945241N14278 1945 52 NA NA NOT_NAMED 1945-09-01 12:00:00 TS 17.0000 -91.3000 25 hurdat_atl main 0 0 O_____________ hurdat_atl AL061945 17.0000 -91.3000 TD 25 -1 8 266
1945241N14278 1945 52 NA NA NOT_NAMED 1945-09-01 15:00:00 TS 16.9901 -91.6675 main 0 0 P_____________ AL061945 16.9901 -91.6675 TD 25 -1 7 270
1945241N14278 1945 52 NA NA NOT_NAMED 1945-09-01 18:00:00 TS 17.0000 -92.0000 25 hurdat_atl main 0 O_____________ hurdat_atl AL061945 17.0000 -92.0000 TD 25 -1 6 272

IBTrACS Databaseについて

本データベースは、米国NOAAが公開する1842年以降の世界の熱帯低気圧のベストトラックデータアーカイブInternational Best Track Archive for Climate Stewardship (IBTrACS)を、ウェブで閲覧しやすい形式に変換したものです。

最終更新日:2021-10-21